X  Kiinni Metar Aviation säätiedot     YMML Melbourne International Airport
Lämpötila
46°F Lämpötila
41°F Kastepiste
82% Kosteus



Tuuli
12 MPH
19 KM/T
5 M/S
10 KTS



10°
P
Nykyiset olosuhteet

Puolipilvistä Puolipilvistä
Paine 1011.92 (hPa) - 29.88 (inHg)
Näkyvyys 6.2 (maili) - 10 (km)
Lentokenttä
Lentokentän koodi YMML

Sijainti: Melbourne International Airport
Etäisyys: 18 (mi)

Metar:
YMML 082200Z 01010KT 9999 FEW035 08/05 Q1012

Aika: 09-06-2023 08:00 AEST